sensor_id;sensor_type;location;lat;lon;timestamp;temperature;humidity
30399;DHT22;17195;50.838;7.214;2022-12-29T00:02:14;12.00;99.90
30399;DHT22;17195;50.838;7.214;2022-12-29T00:04:40;12.10;99.90
30399;DHT22;17195;50.838;7.214;2022-12-29T00:07:06;12.10;99.90
30399;DHT22;17195;50.838;7.214;2022-12-29T00:09:33;12.10;99.90
30399;DHT22;17195;50.838;7.214;2022-12-29T00:11:59;12.10;99.90
30399;DHT22;17195;50.838;7.214;2022-12-29T00:14:24;12.00;99.90
30399;DHT22;17195;50.838;7.214;2022-12-29T00:17:08;12.10;99.90
30399;DHT22;17195;50.838;7.214;2022-12-29T00:19:34;12.10;99.90
30399;DHT22;17195;50.838;7.214;2022-12-29T00:22:18;12.10;99.90
30399;DHT22;17195;50.838;7.214;2022-12-29T00:25:03;12.00;99.90
30399;DHT22;17195;50.838;7.214;2022-12-29T00:27:48;12.00;99.90
30399;DHT22;17195;50.838;7.214;2022-12-29T00:30:32;12.10;99.90
30399;DHT22;17195;50.838;7.214;2022-12-29T00:33:19;12.10;99.90
30399;DHT22;17195;50.838;7.214;2022-12-29T00:38:39;12.20;99.90
30399;DHT22;17195;50.838;7.214;2022-12-29T00:41:24;12.20;99.90
30399;DHT22;17195;50.838;7.214;2022-12-29T00:44:09;12.20;99.90
30399;DHT22;17195;50.838;7.214;2022-12-29T00:46:37;12.20;99.90
30399;DHT22;17195;50.838;7.214;2022-12-29T00:49:04;12.20;99.90
30399;DHT22;17195;50.838;7.214;2022-12-29T00:51:49;12.20;99.90
30399;DHT22;17195;50.838;7.214;2022-12-29T00:54:15;12.20;99.90
30399;DHT22;17195;50.838;7.214;2022-12-29T00:56:41;12.30;99.90
30399;DHT22;17195;50.838;7.214;2022-12-29T00:59:09;12.30;99.90
30399;DHT22;17195;50.838;7.214;2022-12-29T01:01:35;12.30;99.90
30399;DHT22;17195;50.838;7.214;2022-12-29T01:04:01;12.30;99.90
30399;DHT22;17195;50.838;7.214;2022-12-29T01:06:27;12.30;99.90
30399;DHT22;17195;50.838;7.214;2022-12-29T01:08:53;12.30;99.90
30399;DHT22;17195;50.838;7.214;2022-12-29T01:11:40;12.30;99.90
30399;DHT22;17195;50.838;7.214;2022-12-29T01:14:06;12.30;99.90
30399;DHT22;17195;50.838;7.214;2022-12-29T01:16:32;12.30;99.90
30399;DHT22;17195;50.838;7.214;2022-12-29T01:18:58;12.30;99.90
30399;DHT22;17195;50.838;7.214;2022-12-29T01:21:24;12.30;99.90
30399;DHT22;17195;50.838;7.214;2022-12-29T01:23:50;12.20;99.90
30399;DHT22;17195;50.838;7.214;2022-12-29T01:26:17;12.20;99.90
30399;DHT22;17195;50.838;7.214;2022-12-29T01:28:43;12.20;99.90
30399;DHT22;17195;50.838;7.214;2022-12-29T01:31:13;12.20;99.90
30399;DHT22;17195;50.838;7.214;2022-12-29T01:33:39;12.10;99.90
30399;DHT22;17195;50.838;7.214;2022-12-29T01:36:08;12.20;99.90
30399;DHT22;17195;50.838;7.214;2022-12-29T01:38:35;12.10;99.90
30399;DHT22;17195;50.838;7.214;2022-12-29T01:41:01;12.20;99.90
30399;DHT22;17195;50.838;7.214;2022-12-29T01:46:15;12.20;99.90
30399;DHT22;17195;50.838;7.214;2022-12-29T01:48:42;12.30;99.90
30399;DHT22;17195;50.838;7.214;2022-12-29T01:51:08;12.30;99.90
30399;DHT22;17195;50.838;7.214;2022-12-29T01:53:36;12.30;99.90
30399;DHT22;17195;50.838;7.214;2022-12-29T01:56:05;12.40;99.90
30399;DHT22;17195;50.838;7.214;2022-12-29T01:58:36;12.50;99.90
30399;DHT22;17195;50.838;7.214;2022-12-29T02:01:04;12.50;99.90
30399;DHT22;17195;50.838;7.214;2022-12-29T02:03:30;12.50;99.90
30399;DHT22;17195;50.838;7.214;2022-12-29T02:08:46;12.50;99.90
30399;DHT22;17195;50.838;7.214;2022-12-29T02:11:12;12.50;99.90
30399;DHT22;17195;50.838;7.214;2022-12-29T02:13:39;12.50;99.90
30399;DHT22;17195;50.838;7.214;2022-12-29T02:16:30;12.50;99.90
30399;DHT22;17195;50.838;7.214;2022-12-29T02:19:38;12.50;99.90
30399;DHT22;17195;50.838;7.214;2022-12-29T02:25:32;12.40;99.90
30399;DHT22;17195;50.838;7.214;2022-12-29T02:42:08;12.60;99.90
30399;DHT22;17195;50.838;7.214;2022-12-29T02:52:46;12.60;99.90
30399;DHT22;17195;50.838;7.214;2022-12-29T02:55:13;12.60;99.90
30399;DHT22;17195;50.838;7.214;2022-12-29T02:57:39;12.60;99.90
30399;DHT22;17195;50.838;7.214;2022-12-29T03:00:08;12.60;99.90
30399;DHT22;17195;50.838;7.214;2022-12-29T03:11:08;12.60;99.90
30399;DHT22;17195;50.838;7.214;2022-12-29T03:13:59;12.60;99.90
30399;DHT22;17195;50.838;7.214;2022-12-29T03:16:49;12.60;99.90
30399;DHT22;17195;50.838;7.214;2022-12-29T03:19:25;12.50;99.90
30399;DHT22;17195;50.838;7.214;2022-12-29T03:22:01;12.50;99.90
30399;DHT22;17195;50.838;7.214;2022-12-29T03:24:49;12.50;99.90
30399;DHT22;17195;50.838;7.214;2022-12-29T03:27:24;12.50;99.90
30399;DHT22;17195;50.838;7.214;2022-12-29T03:29:54;12.50;99.90
30399;DHT22;17195;50.838;7.214;2022-12-29T03:32:22;12.50;99.90
30399;DHT22;17195;50.838;7.214;2022-12-29T03:34:49;12.50;99.90
30399;DHT22;17195;50.838;7.214;2022-12-29T03:37:20;12.50;99.90
30399;DHT22;17195;50.838;7.214;2022-12-29T03:39:46;12.50;99.90
30399;DHT22;17195;50.838;7.214;2022-12-29T03:42:19;12.50;99.90
30399;DHT22;17195;50.838;7.214;2022-12-29T03:44:45;12.50;99.90
30399;DHT22;17195;50.838;7.214;2022-12-29T03:47:12;12.50;99.90
30399;DHT22;17195;50.838;7.214;2022-12-29T03:49:39;12.50;99.90
30399;DHT22;17195;50.838;7.214;2022-12-29T03:52:05;12.50;99.90
30399;DHT22;17195;50.838;7.214;2022-12-29T03:54:34;12.60;99.90
30399;DHT22;17195;50.838;7.214;2022-12-29T03:56:59;12.50;99.90
30399;DHT22;17195;50.838;7.214;2022-12-29T03:59:25;12.50;99.90
30399;DHT22;17195;50.838;7.214;2022-12-29T04:01:50;12.60;99.90
30399;DHT22;17195;50.838;7.214;2022-12-29T04:04:16;12.50;99.90
30399;DHT22;17195;50.838;7.214;2022-12-29T04:06:41;12.50;99.90
30399;DHT22;17195;50.838;7.214;2022-12-29T04:09:07;12.60;99.90
30399;DHT22;17195;50.838;7.214;2022-12-29T04:11:33;12.60;99.90
30399;DHT22;17195;50.838;7.214;2022-12-29T04:13:58;12.50;99.90
30399;DHT22;17195;50.838;7.214;2022-12-29T04:16:24;12.50;99.90
30399;DHT22;17195;50.838;7.214;2022-12-29T04:18:49;12.50;99.90
30399;DHT22;17195;50.838;7.214;2022-12-29T04:21:15;12.50;99.90
30399;DHT22;17195;50.838;7.214;2022-12-29T04:23:40;12.40;99.90
30399;DHT22;17195;50.838;7.214;2022-12-29T04:26:07;12.40;99.90
30399;DHT22;17195;50.838;7.214;2022-12-29T04:28:34;12.40;99.90
30399;DHT22;17195;50.838;7.214;2022-12-29T04:31:00;12.40;99.90
30399;DHT22;17195;50.838;7.214;2022-12-29T04:33:26;12.40;99.90
30399;DHT22;17195;50.838;7.214;2022-12-29T04:35:52;12.40;99.90
30399;DHT22;17195;50.838;7.214;2022-12-29T04:38:20;12.40;99.90
30399;DHT22;17195;50.838;7.214;2022-12-29T04:40:46;12.30;99.90
30399;DHT22;17195;50.838;7.214;2022-12-29T04:43:12;12.40;99.90
30399;DHT22;17195;50.838;7.214;2022-12-29T04:45:42;12.30;99.90
30399;DHT22;17195;50.838;7.214;2022-12-29T04:48:08;12.30;99.90
30399;DHT22;17195;50.838;7.214;2022-12-29T04:50:33;12.30;99.90
30399;DHT22;17195;50.838;7.214;2022-12-29T04:52:59;12.30;99.90
30399;DHT22;17195;50.838;7.214;2022-12-29T04:55:24;12.20;99.90
30399;DHT22;17195;50.838;7.214;2022-12-29T04:57:50;12.10;99.90
30399;DHT22;17195;50.838;7.214;2022-12-29T05:00:15;12.10;99.90
30399;DHT22;17195;50.838;7.214;2022-12-29T05:02:41;12.00;99.90
30399;DHT22;17195;50.838;7.214;2022-12-29T05:05:07;11.90;99.90
30399;DHT22;17195;50.838;7.214;2022-12-29T05:07:33;11.90;99.90
30399;DHT22;17195;50.838;7.214;2022-12-29T05:09:59;11.90;99.90
30399;DHT22;17195;50.838;7.214;2022-12-29T05:12:24;11.90;99.90
30399;DHT22;17195;50.838;7.214;2022-12-29T05:14:50;11.80;99.90
30399;DHT22;17195;50.838;7.214;2022-12-29T05:17:16;11.80;99.90
30399;DHT22;17195;50.838;7.214;2022-12-29T05:19:41;11.70;99.90
30399;DHT22;17195;50.838;7.214;2022-12-29T05:22:07;11.70;99.90
30399;DHT22;17195;50.838;7.214;2022-12-29T05:24:32;11.80;99.90
30399;DHT22;17195;50.838;7.214;2022-12-29T05:26:58;11.80;99.90
30399;DHT22;17195;50.838;7.214;2022-12-29T05:29:23;11.90;99.90
30399;DHT22;17195;50.838;7.214;2022-12-29T05:31:49;11.90;99.90
30399;DHT22;17195;50.838;7.214;2022-12-29T05:34:14;12.00;99.90
30399;DHT22;17195;50.838;7.214;2022-12-29T05:36:40;12.00;99.90
30399;DHT22;17195;50.838;7.214;2022-12-29T05:39:06;12.10;99.90
30399;DHT22;17195;50.838;7.214;2022-12-29T05:41:33;12.10;99.90
30399;DHT22;17195;50.838;7.214;2022-12-29T05:43:59;12.10;99.90
30399;DHT22;17195;50.838;7.214;2022-12-29T05:46:25;12.10;99.90
30399;DHT22;17195;50.838;7.214;2022-12-29T05:48:51;12.10;99.90
30399;DHT22;17195;50.838;7.214;2022-12-29T05:51:17;12.10;99.90
30399;DHT22;17195;50.838;7.214;2022-12-29T05:53:42;12.00;99.90
30399;DHT22;17195;50.838;7.214;2022-12-29T05:56:08;12.10;99.90
30399;DHT22;17195;50.838;7.214;2022-12-29T05:58:33;12.00;99.90
30399;DHT22;17195;50.838;7.214;2022-12-29T06:00:59;12.00;99.90
30399;DHT22;17195;50.838;7.214;2022-12-29T06:03:24;12.00;99.90
30399;DHT22;17195;50.838;7.214;2022-12-29T06:05:50;12.00;99.90
30399;DHT22;17195;50.838;7.214;2022-12-29T06:08:15;11.90;99.90
30399;DHT22;17195;50.838;7.214;2022-12-29T06:10:41;11.90;99.90
30399;DHT22;17195;50.838;7.214;2022-12-29T06:13:06;11.80;99.90
30399;DHT22;17195;50.838;7.214;2022-12-29T06:15:33;11.70;99.90
30399;DHT22;17195;50.838;7.214;2022-12-29T06:17:58;11.70;99.90
30399;DHT22;17195;50.838;7.214;2022-12-29T06:20:24;11.60;99.90
30399;DHT22;17195;50.838;7.214;2022-12-29T06:22:50;11.50;99.90
30399;DHT22;17195;50.838;7.214;2022-12-29T06:25:15;11.40;99.90
30399;DHT22;17195;50.838;7.214;2022-12-29T06:27:42;11.30;99.90
30399;DHT22;17195;50.838;7.214;2022-12-29T06:30:08;11.30;99.90
30399;DHT22;17195;50.838;7.214;2022-12-29T06:32:34;11.30;99.90
30399;DHT22;17195;50.838;7.214;2022-12-29T06:35:00;11.30;99.90
30399;DHT22;17195;50.838;7.214;2022-12-29T06:37:26;11.30;99.90
30399;DHT22;17195;50.838;7.214;2022-12-29T06:39:52;11.30;99.90
30399;DHT22;17195;50.838;7.214;2022-12-29T06:42:17;11.30;99.90
30399;DHT22;17195;50.838;7.214;2022-12-29T06:44:43;11.30;99.90
30399;DHT22;17195;50.838;7.214;2022-12-29T06:47:08;11.30;99.90
30399;DHT22;17195;50.838;7.214;2022-12-29T06:49:34;11.30;99.90
30399;DHT22;17195;50.838;7.214;2022-12-29T06:51:59;11.20;99.90
30399;DHT22;17195;50.838;7.214;2022-12-29T06:54:26;11.20;99.90
30399;DHT22;17195;50.838;7.214;2022-12-29T06:56:51;11.20;99.90
30399;DHT22;17195;50.838;7.214;2022-12-29T06:59:17;11.30;99.90
30399;DHT22;17195;50.838;7.214;2022-12-29T07:01:43;11.30;99.90
30399;DHT22;17195;50.838;7.214;2022-12-29T07:04:08;11.30;99.90
30399;DHT22;17195;50.838;7.214;2022-12-29T07:06:34;11.30;99.90
30399;DHT22;17195;50.838;7.214;2022-12-29T07:08:59;11.30;99.90
30399;DHT22;17195;50.838;7.214;2022-12-29T07:11:25;11.30;99.90
30399;DHT22;17195;50.838;7.214;2022-12-29T07:13:50;11.30;99.90
30399;DHT22;17195;50.838;7.214;2022-12-29T07:16:16;11.30;99.90
30399;DHT22;17195;50.838;7.214;2022-12-29T07:18:42;11.30;99.90
30399;DHT22;17195;50.838;7.214;2022-12-29T07:21:08;11.30;99.90
30399;DHT22;17195;50.838;7.214;2022-12-29T07:23:33;11.40;99.90
30399;DHT22;17195;50.838;7.214;2022-12-29T07:26:07;11.50;99.90
30399;DHT22;17195;50.838;7.214;2022-12-29T07:28:34;11.50;99.90
30399;DHT22;17195;50.838;7.214;2022-12-29T07:31:00;11.40;99.90
30399;DHT22;17195;50.838;7.214;2022-12-29T07:33:28;11.50;99.90
30399;DHT22;17195;50.838;7.214;2022-12-29T07:35:54;11.50;99.90
30399;DHT22;17195;50.838;7.214;2022-12-29T07:38:20;11.50;99.90
30399;DHT22;17195;50.838;7.214;2022-12-29T07:40:45;11.50;99.90
30399;DHT22;17195;50.838;7.214;2022-12-29T07:43:11;11.50;99.90
30399;DHT22;17195;50.838;7.214;2022-12-29T07:45:36;11.50;99.90
30399;DHT22;17195;50.838;7.214;2022-12-29T07:48:02;11.50;99.90
30399;DHT22;17195;50.838;7.214;2022-12-29T07:50:28;11.50;99.90
30399;DHT22;17195;50.838;7.214;2022-12-29T07:52:54;11.60;99.90
30399;DHT22;17195;50.838;7.214;2022-12-29T07:55:19;11.60;99.90
30399;DHT22;17195;50.838;7.214;2022-12-29T07:57:45;11.60;99.90
30399;DHT22;17195;50.838;7.214;2022-12-29T08:00:12;11.60;99.90
30399;DHT22;17195;50.838;7.214;2022-12-29T08:02:37;11.60;99.90
30399;DHT22;17195;50.838;7.214;2022-12-29T08:05:03;11.60;99.90
30399;DHT22;17195;50.838;7.214;2022-12-29T08:07:29;11.70;99.90
30399;DHT22;17195;50.838;7.214;2022-12-29T08:09:54;11.70;99.90
30399;DHT22;17195;50.838;7.214;2022-12-29T08:12:20;11.70;99.90
30399;DHT22;17195;50.838;7.214;2022-12-29T08:14:46;11.70;99.90
30399;DHT22;17195;50.838;7.214;2022-12-29T08:17:11;11.70;99.90
30399;DHT22;17195;50.838;7.214;2022-12-29T08:19:37;11.70;99.90
30399;DHT22;17195;50.838;7.214;2022-12-29T08:22:03;11.70;99.90
30399;DHT22;17195;50.838;7.214;2022-12-29T08:24:28;11.60;99.90
30399;DHT22;17195;50.838;7.214;2022-12-29T08:26:54;11.60;99.90
30399;DHT22;17195;50.838;7.214;2022-12-29T08:29:20;11.70;99.90
30399;DHT22;17195;50.838;7.214;2022-12-29T08:31:47;11.70;99.90
30399;DHT22;17195;50.838;7.214;2022-12-29T08:34:12;11.60;99.90
30399;DHT22;17195;50.838;7.214;2022-12-29T08:36:38;11.70;99.90
30399;DHT22;17195;50.838;7.214;2022-12-29T08:39:03;11.70;99.90
30399;DHT22;17195;50.838;7.214;2022-12-29T08:41:29;11.70;99.90
30399;DHT22;17195;50.838;7.214;2022-12-29T08:43:54;11.70;99.90
30399;DHT22;17195;50.838;7.214;2022-12-29T08:46:20;11.70;99.90
30399;DHT22;17195;50.838;7.214;2022-12-29T08:48:46;11.70;99.90
30399;DHT22;17195;50.838;7.214;2022-12-29T08:51:13;11.70;99.90
30399;DHT22;17195;50.838;7.214;2022-12-29T08:53:39;11.70;99.90
30399;DHT22;17195;50.838;7.214;2022-12-29T08:56:05;11.70;99.90
30399;DHT22;17195;50.838;7.214;2022-12-29T08:58:31;11.70;99.90
30399;DHT22;17195;50.838;7.214;2022-12-29T09:00:57;11.70;99.90
30399;DHT22;17195;50.838;7.214;2022-12-29T09:03:24;11.70;99.90
30399;DHT22;17195;50.838;7.214;2022-12-29T09:05:54;11.70;99.90
30399;DHT22;17195;50.838;7.214;2022-12-29T09:08:20;11.70;99.90
30399;DHT22;17195;50.838;7.214;2022-12-29T09:10:46;11.60;99.90
30399;DHT22;17195;50.838;7.214;2022-12-29T09:13:13;11.70;99.90
30399;DHT22;17195;50.838;7.214;2022-12-29T09:15:40;11.60;99.90
30399;DHT22;17195;50.838;7.214;2022-12-29T09:18:07;11.60;99.90
30399;DHT22;17195;50.838;7.214;2022-12-29T09:20:33;11.70;99.90
30399;DHT22;17195;50.838;7.214;2022-12-29T09:22:59;11.70;99.90
30399;DHT22;17195;50.838;7.214;2022-12-29T09:25:25;11.70;99.90
30399;DHT22;17195;50.838;7.214;2022-12-29T09:27:51;11.70;99.90
30399;DHT22;17195;50.838;7.214;2022-12-29T09:30:19;11.70;99.90
30399;DHT22;17195;50.838;7.214;2022-12-29T09:32:46;11.70;99.90
30399;DHT22;17195;50.838;7.214;2022-12-29T09:35:12;11.70;99.90
30399;DHT22;17195;50.838;7.214;2022-12-29T09:37:38;11.70;99.90
30399;DHT22;17195;50.838;7.214;2022-12-29T09:40:05;11.70;99.90
30399;DHT22;17195;50.838;7.214;2022-12-29T09:42:55;11.70;99.90
30399;DHT22;17195;50.838;7.214;2022-12-29T09:45:40;11.80;99.90
30399;DHT22;17195;50.838;7.214;2022-12-29T09:48:14;11.80;99.90
30399;DHT22;17195;50.838;7.214;2022-12-29T09:50:46;11.90;99.90
30399;DHT22;17195;50.838;7.214;2022-12-29T09:53:26;11.80;99.90
30399;DHT22;17195;50.838;7.214;2022-12-29T09:55:56;11.80;99.90
30399;DHT22;17195;50.838;7.214;2022-12-29T09:58:38;11.80;99.90
30399;DHT22;17195;50.838;7.214;2022-12-29T10:01:07;11.90;99.90
30399;DHT22;17195;50.838;7.214;2022-12-29T10:03:47;11.90;99.90
30399;DHT22;17195;50.838;7.214;2022-12-29T10:22:32;12.10;99.90
30399;DHT22;17195;50.838;7.214;2022-12-29T10:25:12;12.20;99.90
30399;DHT22;17195;50.838;7.214;2022-12-29T10:27:40;12.20;99.90
30399;DHT22;17195;50.838;7.214;2022-12-29T10:30:12;12.20;99.90
30399;DHT22;17195;50.838;7.214;2022-12-29T10:32:51;12.20;99.90
30399;DHT22;17195;50.838;7.214;2022-12-29T10:35:23;12.20;99.90
30399;DHT22;17195;50.838;7.214;2022-12-29T10:37:58;12.20;99.90
30399;DHT22;17195;50.838;7.214;2022-12-29T10:40:36;12.30;99.90
30399;DHT22;17195;50.838;7.214;2022-12-29T10:43:20;12.30;99.90
30399;DHT22;17195;50.838;7.214;2022-12-29T10:45:47;12.30;99.90
30399;DHT22;17195;50.838;7.214;2022-12-29T10:48:21;12.30;99.90
30399;DHT22;17195;50.838;7.214;2022-12-29T10:50:48;12.30;99.90
30399;DHT22;17195;50.838;7.214;2022-12-29T10:53:21;12.30;99.90
30399;DHT22;17195;50.838;7.214;2022-12-29T10:55:47;12.30;99.90
30399;DHT22;17195;50.838;7.214;2022-12-29T10:58:14;12.30;99.90
30399;DHT22;17195;50.838;7.214;2022-12-29T11:00:42;12.30;99.90
30399;DHT22;17195;50.838;7.214;2022-12-29T11:06:05;12.30;99.90
30399;DHT22;17195;50.838;7.214;2022-12-29T11:08:38;12.30;99.90
30399;DHT22;17195;50.838;7.214;2022-12-29T11:11:06;12.30;99.90
30399;DHT22;17195;50.838;7.214;2022-12-29T11:13:48;12.40;99.90
30399;DHT22;17195;50.838;7.214;2022-12-29T11:16:14;12.40;99.90
30399;DHT22;17195;50.838;7.214;2022-12-29T11:18:40;12.40;99.90
30399;DHT22;17195;50.838;7.214;2022-12-29T11:24:01;12.50;99.90
30399;DHT22;17195;50.838;7.214;2022-12-29T11:26:28;12.40;99.90
30399;DHT22;17195;50.838;7.214;2022-12-29T11:31:45;12.50;99.90
30399;DHT22;17195;50.838;7.214;2022-12-29T11:34:24;12.60;99.90
30399;DHT22;17195;50.838;7.214;2022-12-29T11:36:53;12.70;99.90
30399;DHT22;17195;50.838;7.214;2022-12-29T11:42:01;12.80;99.90
30399;DHT22;17195;50.838;7.214;2022-12-29T11:44:34;12.80;99.90
30399;DHT22;17195;50.838;7.214;2022-12-29T11:47:01;12.80;99.90
30399;DHT22;17195;50.838;7.214;2022-12-29T11:49:27;12.80;99.90
30399;DHT22;17195;50.838;7.214;2022-12-29T11:51:54;12.80;99.90
30399;DHT22;17195;50.838;7.214;2022-12-29T11:54:29;12.70;99.90
30399;DHT22;17195;50.838;7.214;2022-12-29T11:56:56;12.70;99.90
30399;DHT22;17195;50.838;7.214;2022-12-29T12:02:01;12.60;99.90
30399;DHT22;17195;50.838;7.214;2022-12-29T12:04:35;12.50;99.90
30399;DHT22;17195;50.838;7.214;2022-12-29T12:07:11;12.50;99.90
30399;DHT22;17195;50.838;7.214;2022-12-29T12:09:48;12.50;99.90
30399;DHT22;17195;50.838;7.214;2022-12-29T12:15:35;12.50;99.90
30399;DHT22;17195;50.838;7.214;2022-12-29T12:18:09;12.50;99.90
30399;DHT22;17195;50.838;7.214;2022-12-29T12:26:34;12.50;99.90
30399;DHT22;17195;50.838;7.214;2022-12-29T12:29:14;12.50;99.90
30399;DHT22;17195;50.838;7.214;2022-12-29T12:32:04;12.40;99.90
30399;DHT22;17195;50.838;7.214;2022-12-29T12:34:43;12.30;99.90
30399;DHT22;17195;50.838;7.214;2022-12-29T12:40:11;12.30;99.90
30399;DHT22;17195;50.838;7.214;2022-12-29T12:59:49;12.20;99.90
30399;DHT22;17195;50.838;7.214;2022-12-29T13:07:56;12.20;99.90
30399;DHT22;17195;50.838;7.214;2022-12-29T13:10:50;12.20;99.90
30399;DHT22;17195;50.838;7.214;2022-12-29T13:16:03;12.10;99.90
30399;DHT22;17195;50.838;7.214;2022-12-29T13:18:59;12.20;99.90
30399;DHT22;17195;50.838;7.214;2022-12-29T13:22:06;12.20;99.90
30399;DHT22;17195;50.838;7.214;2022-12-29T13:30:17;12.20;99.90
30399;DHT22;17195;50.838;7.214;2022-12-29T13:32:53;12.20;99.90
30399;DHT22;17195;50.838;7.214;2022-12-29T13:37:55;12.10;99.90
30399;DHT22;17195;50.838;7.214;2022-12-29T13:40:26;12.10;99.90
30399;DHT22;17195;50.838;7.214;2022-12-29T13:42:55;12.10;99.90
30399;DHT22;17195;50.838;7.214;2022-12-29T13:45:23;12.00;99.90
30399;DHT22;17195;50.838;7.214;2022-12-29T13:47:57;12.10;99.90
30399;DHT22;17195;50.838;7.214;2022-12-29T13:50:27;12.00;99.90
30399;DHT22;17195;50.838;7.214;2022-12-29T13:55:55;11.90;99.90
30399;DHT22;17195;50.838;7.214;2022-12-29T13:58:31;11.90;99.90
30399;DHT22;17195;50.838;7.214;2022-12-29T14:01:28;11.90;99.90
30399;DHT22;17195;50.838;7.214;2022-12-29T14:03:56;11.90;99.90
30399;DHT22;17195;50.838;7.214;2022-12-29T14:06:40;11.80;99.90
30399;DHT22;17195;50.838;7.214;2022-12-29T14:09:43;11.80;99.90
30399;DHT22;17195;50.838;7.214;2022-12-29T14:15:05;11.80;99.90
30399;DHT22;17195;50.838;7.214;2022-12-29T14:17:32;11.90;99.90
30399;DHT22;17195;50.838;7.214;2022-12-29T14:19:58;11.90;99.90
30399;DHT22;17195;50.838;7.214;2022-12-29T14:22:25;11.90;99.90
30399;DHT22;17195;50.838;7.214;2022-12-29T14:24:51;12.00;99.90
30399;DHT22;17195;50.838;7.214;2022-12-29T14:29:50;12.00;99.90
30399;DHT22;17195;50.838;7.214;2022-12-29T14:35:09;12.00;99.90
30399;DHT22;17195;50.838;7.214;2022-12-29T14:37:46;12.00;99.90
30399;DHT22;17195;50.838;7.214;2022-12-29T14:40:24;11.90;99.90
30399;DHT22;17195;50.838;7.214;2022-12-29T14:42:53;11.80;99.90
30399;DHT22;17195;50.838;7.214;2022-12-29T14:47:50;11.50;99.90
30399;DHT22;17195;50.838;7.214;2022-12-29T14:55:55;11.10;99.90
30399;DHT22;17195;50.838;7.214;2022-12-29T14:58:30;11.00;99.90
30399;DHT22;17195;50.838;7.214;2022-12-29T15:00:56;10.90;99.90
30399;DHT22;17195;50.838;7.214;2022-12-29T15:03:32;10.80;99.90
30399;DHT22;17195;50.838;7.214;2022-12-29T15:06:11;10.70;99.90
30399;DHT22;17195;50.838;7.214;2022-12-29T15:08:48;10.60;99.90
30399;DHT22;17195;50.838;7.214;2022-12-29T15:14:03;10.60;99.90
30399;DHT22;17195;50.838;7.214;2022-12-29T15:16:34;10.50;99.90
30399;DHT22;17195;50.838;7.214;2022-12-29T15:19:03;10.50;99.90
30399;DHT22;17195;50.838;7.214;2022-12-29T15:21:33;10.50;99.90
30399;DHT22;17195;50.838;7.214;2022-12-29T15:24:00;10.50;99.90
30399;DHT22;17195;50.838;7.214;2022-12-29T15:26:38;10.40;99.90
30399;DHT22;17195;50.838;7.214;2022-12-29T15:29:04;10.30;99.90
30399;DHT22;17195;50.838;7.214;2022-12-29T15:31:29;10.30;99.90
30399;DHT22;17195;50.838;7.214;2022-12-29T15:34:07;10.20;99.90
30399;DHT22;17195;50.838;7.214;2022-12-29T15:36:38;10.10;99.90
30399;DHT22;17195;50.838;7.214;2022-12-29T15:39:26;10.00;99.90
30399;DHT22;17195;50.838;7.214;2022-12-29T15:44:56;9.80;99.90
30399;DHT22;17195;50.838;7.214;2022-12-29T15:47:26;9.70;99.90
30399;DHT22;17195;50.838;7.214;2022-12-29T15:50:06;9.70;99.90
30399;DHT22;17195;50.838;7.214;2022-12-29T15:52:34;9.70;99.90
30399;DHT22;17195;50.838;7.214;2022-12-29T15:55:01;9.60;99.90
30399;DHT22;17195;50.838;7.214;2022-12-29T15:57:36;9.60;99.90
30399;DHT22;17195;50.838;7.214;2022-12-29T16:00:03;9.50;99.90
30399;DHT22;17195;50.838;7.214;2022-12-29T16:02:29;9.40;99.90
30399;DHT22;17195;50.838;7.214;2022-12-29T16:04:55;9.40;99.90
30399;DHT22;17195;50.838;7.214;2022-12-29T16:07:30;9.30;99.90
30399;DHT22;17195;50.838;7.214;2022-12-29T16:09:57;9.20;99.90
30399;DHT22;17195;50.838;7.214;2022-12-29T16:12:32;9.20;99.90
30399;DHT22;17195;50.838;7.214;2022-12-29T16:15:02;9.20;99.90
30399;DHT22;17195;50.838;7.214;2022-12-29T16:17:30;9.20;99.90
30399;DHT22;17195;50.838;7.214;2022-12-29T16:20:20;9.10;99.90
30399;DHT22;17195;50.838;7.214;2022-12-29T16:22:55;9.00;99.90
30399;DHT22;17195;50.838;7.214;2022-12-29T16:25:22;9.00;99.90
30399;DHT22;17195;50.838;7.214;2022-12-29T16:27:50;9.00;99.90
30399;DHT22;17195;50.838;7.214;2022-12-29T16:30:22;8.90;99.90
30399;DHT22;17195;50.838;7.214;2022-12-29T16:32:50;8.80;99.90
30399;DHT22;17195;50.838;7.214;2022-12-29T16:35:20;8.80;99.90
30399;DHT22;17195;50.838;7.214;2022-12-29T16:37:49;8.70;99.90
30399;DHT22;17195;50.838;7.214;2022-12-29T16:40:31;8.70;99.90
30399;DHT22;17195;50.838;7.214;2022-12-29T16:43:01;8.60;99.90
30399;DHT22;17195;50.838;7.214;2022-12-29T16:48:23;8.50;99.90
30399;DHT22;17195;50.838;7.214;2022-12-29T16:50:50;8.50;99.90
30399;DHT22;17195;50.838;7.214;2022-12-29T16:53:29;8.40;99.90
30399;DHT22;17195;50.838;7.214;2022-12-29T16:56:05;8.40;99.90
30399;DHT22;17195;50.838;7.214;2022-12-29T16:58:32;8.40;99.90
30399;DHT22;17195;50.838;7.214;2022-12-29T17:01:02;8.40;99.90
30399;DHT22;17195;50.838;7.214;2022-12-29T17:03:42;8.40;99.90
30399;DHT22;17195;50.838;7.214;2022-12-29T17:06:16;8.40;99.90
30399;DHT22;17195;50.838;7.214;2022-12-29T17:08:43;8.40;99.90
30399;DHT22;17195;50.838;7.214;2022-12-29T17:14:04;8.50;99.90
30399;DHT22;17195;50.838;7.214;2022-12-29T17:16:30;8.60;99.90
30399;DHT22;17195;50.838;7.214;2022-12-29T17:18:56;8.80;99.90
30399;DHT22;17195;50.838;7.214;2022-12-29T17:21:22;8.90;99.90
30399;DHT22;17195;50.838;7.214;2022-12-29T17:23:47;9.00;99.90
30399;DHT22;17195;50.838;7.214;2022-12-29T17:26:13;9.00;99.90
30399;DHT22;17195;50.838;7.214;2022-12-29T17:28:39;9.00;99.90
30399;DHT22;17195;50.838;7.214;2022-12-29T17:31:05;9.00;99.90
30399;DHT22;17195;50.838;7.214;2022-12-29T17:33:36;9.00;99.90
30399;DHT22;17195;50.838;7.214;2022-12-29T17:36:02;9.10;99.90
30399;DHT22;17195;50.838;7.214;2022-12-29T17:38:30;9.10;99.90
30399;DHT22;17195;50.838;7.214;2022-12-29T17:40:56;9.10;99.90
30399;DHT22;17195;50.838;7.214;2022-12-29T17:43:22;9.20;99.90
30399;DHT22;17195;50.838;7.214;2022-12-29T17:45:52;9.10;99.90
30399;DHT22;17195;50.838;7.214;2022-12-29T17:48:19;9.10;99.90
30399;DHT22;17195;50.838;7.214;2022-12-29T17:50:47;9.10;99.90
30399;DHT22;17195;50.838;7.214;2022-12-29T17:53:15;9.00;99.90
30399;DHT22;17195;50.838;7.214;2022-12-29T17:55:41;9.00;99.90
30399;DHT22;17195;50.838;7.214;2022-12-29T17:58:24;8.90;99.90
30399;DHT22;17195;50.838;7.214;2022-12-29T18:00:55;8.90;99.90
30399;DHT22;17195;50.838;7.214;2022-12-29T18:03:39;8.80;99.90
30399;DHT22;17195;50.838;7.214;2022-12-29T18:06:06;8.80;99.90
30399;DHT22;17195;50.838;7.214;2022-12-29T18:08:34;8.80;99.90
30399;DHT22;17195;50.838;7.214;2022-12-29T18:11:00;8.70;99.90
30399;DHT22;17195;50.838;7.214;2022-12-29T18:13:30;8.70;99.90
30399;DHT22;17195;50.838;7.214;2022-12-29T18:15:57;8.60;99.90
30399;DHT22;17195;50.838;7.214;2022-12-29T18:18:25;8.50;99.90